sensor_id;sensor_type;location;lat;lon;timestamp;P1;durP1;ratioP1;P2;durP2;ratioP2
769;SDS011;368;48.698;9.116;2023-03-14T00:01:00;1.97;;;0.50;;
769;SDS011;368;48.698;9.116;2023-03-14T00:03:33;1.07;;;0.40;;
769;SDS011;368;48.698;9.116;2023-03-14T00:06:01;1.50;;;0.77;;
769;SDS011;368;48.698;9.116;2023-03-14T00:08:28;0.83;;;0.80;;
769;SDS011;368;48.698;9.116;2023-03-14T00:10:55;1.00;;;0.60;;
769;SDS011;368;48.698;9.116;2023-03-14T00:13:28;0.67;;;0.50;;
769;SDS011;368;48.698;9.116;2023-03-14T00:15:56;1.23;;;0.70;;
769;SDS011;368;48.698;9.116;2023-03-14T00:18:28;0.77;;;0.70;;
769;SDS011;368;48.698;9.116;2023-03-14T00:20:58;1.33;;;0.60;;
769;SDS011;368;48.698;9.116;2023-03-14T00:23:26;1.90;;;0.77;;
769;SDS011;368;48.698;9.116;2023-03-14T00:25:53;1.07;;;0.60;;
769;SDS011;368;48.698;9.116;2023-03-14T00:28:26;1.27;;;1.00;;
769;SDS011;368;48.698;9.116;2023-03-14T00:30:53;0.70;;;0.70;;
769;SDS011;368;48.698;9.116;2023-03-14T00:33:22;0.93;;;0.60;;
769;SDS011;368;48.698;9.116;2023-03-14T00:35:53;1.23;;;0.73;;
769;SDS011;368;48.698;9.116;2023-03-14T00:38:22;0.93;;;0.83;;
769;SDS011;368;48.698;9.116;2023-03-14T00:40:49;0.97;;;0.70;;
769;SDS011;368;48.698;9.116;2023-03-14T00:43:16;1.00;;;0.70;;
769;SDS011;368;48.698;9.116;2023-03-14T00:45:43;0.97;;;0.50;;
769;SDS011;368;48.698;9.116;2023-03-14T00:48:10;0.70;;;0.60;;
769;SDS011;368;48.698;9.116;2023-03-14T00:50:39;0.70;;;0.60;;
769;SDS011;368;48.698;9.116;2023-03-14T00:53:06;0.60;;;0.50;;
769;SDS011;368;48.698;9.116;2023-03-14T00:55:35;1.07;;;0.67;;
769;SDS011;368;48.698;9.116;2023-03-14T00:58:03;0.90;;;0.67;;
769;SDS011;368;48.698;9.116;2023-03-14T01:00:30;0.87;;;0.60;;
769;SDS011;368;48.698;9.116;2023-03-14T01:02:56;0.80;;;0.50;;
769;SDS011;368;48.698;9.116;2023-03-14T01:05:23;0.50;;;0.50;;
769;SDS011;368;48.698;9.116;2023-03-14T01:07:51;0.73;;;0.47;;
769;SDS011;368;48.698;9.116;2023-03-14T01:10:18;1.10;;;0.60;;
769;SDS011;368;48.698;9.116;2023-03-14T01:12:45;1.37;;;1.00;;
769;SDS011;368;48.698;9.116;2023-03-14T01:15:12;0.50;;;0.50;;
769;SDS011;368;48.698;9.116;2023-03-14T01:17:39;1.03;;;0.50;;
769;SDS011;368;48.698;9.116;2023-03-14T01:20:06;0.50;;;0.40;;
769;SDS011;368;48.698;9.116;2023-03-14T01:22:35;0.40;;;0.40;;
769;SDS011;368;48.698;9.116;2023-03-14T01:25:05;0.50;;;0.50;;
769;SDS011;368;48.698;9.116;2023-03-14T01:27:33;0.60;;;0.50;;
769;SDS011;368;48.698;9.116;2023-03-14T01:30:00;0.80;;;0.40;;
769;SDS011;368;48.698;9.116;2023-03-14T01:32:27;1.13;;;0.63;;
769;SDS011;368;48.698;9.116;2023-03-14T01:34:54;1.20;;;0.67;;
769;SDS011;368;48.698;9.116;2023-03-14T01:37:20;0.60;;;0.47;;
769;SDS011;368;48.698;9.116;2023-03-14T01:39:47;0.80;;;0.53;;
769;SDS011;368;48.698;9.116;2023-03-14T01:42:16;1.17;;;0.60;;
769;SDS011;368;48.698;9.116;2023-03-14T01:44:49;0.50;;;0.40;;
769;SDS011;368;48.698;9.116;2023-03-14T01:47:17;1.00;;;0.30;;
769;SDS011;368;48.698;9.116;2023-03-14T01:49:45;2.00;;;0.80;;
769;SDS011;368;48.698;9.116;2023-03-14T01:52:16;0.67;;;0.50;;
769;SDS011;368;48.698;9.116;2023-03-14T01:54:46;2.10;;;0.60;;
769;SDS011;368;48.698;9.116;2023-03-14T01:57:19;0.50;;;0.50;;
769;SDS011;368;48.698;9.116;2023-03-14T01:59:51;0.60;;;0.50;;
769;SDS011;368;48.698;9.116;2023-03-14T02:02:20;0.93;;;0.70;;
769;SDS011;368;48.698;9.116;2023-03-14T02:04:48;1.63;;;0.50;;
769;SDS011;368;48.698;9.116;2023-03-14T02:07:16;0.90;;;0.50;;
769;SDS011;368;48.698;9.116;2023-03-14T02:09:45;0.50;;;0.40;;
769;SDS011;368;48.698;9.116;2023-03-14T02:12:15;0.77;;;0.50;;
769;SDS011;368;48.698;9.116;2023-03-14T02:14:45;0.60;;;0.47;;
769;SDS011;368;48.698;9.116;2023-03-14T02:17:13;2.33;;;0.57;;
769;SDS011;368;48.698;9.116;2023-03-14T02:22:37;0.50;;;0.40;;
769;SDS011;368;48.698;9.116;2023-03-14T02:25:06;0.50;;;0.40;;
769;SDS011;368;48.698;9.116;2023-03-14T02:27:39;0.53;;;0.50;;
769;SDS011;368;48.698;9.116;2023-03-14T02:30:07;0.30;;;0.30;;
769;SDS011;368;48.698;9.116;2023-03-14T02:32:37;0.63;;;0.50;;
769;SDS011;368;48.698;9.116;2023-03-14T02:35:06;0.40;;;0.30;;
769;SDS011;368;48.698;9.116;2023-03-14T02:37:37;1.17;;;0.50;;
769;SDS011;368;48.698;9.116;2023-03-14T02:40:08;1.43;;;0.40;;
769;SDS011;368;48.698;9.116;2023-03-14T02:42:35;0.80;;;0.50;;
769;SDS011;368;48.698;9.116;2023-03-14T02:48:02;1.17;;;0.50;;
769;SDS011;368;48.698;9.116;2023-03-14T02:50:32;0.50;;;0.30;;
769;SDS011;368;48.698;9.116;2023-03-14T02:53:00;0.70;;;0.50;;
769;SDS011;368;48.698;9.116;2023-03-14T02:55:27;0.77;;;0.50;;
769;SDS011;368;48.698;9.116;2023-03-14T02:57:54;0.63;;;0.50;;
769;SDS011;368;48.698;9.116;2023-03-14T03:00:21;0.50;;;0.40;;
769;SDS011;368;48.698;9.116;2023-03-14T03:02:50;0.87;;;0.53;;
769;SDS011;368;48.698;9.116;2023-03-14T03:05:17;0.83;;;0.53;;
769;SDS011;368;48.698;9.116;2023-03-14T03:07:44;0.60;;;0.50;;
769;SDS011;368;48.698;9.116;2023-03-14T03:10:11;0.90;;;0.60;;
769;SDS011;368;48.698;9.116;2023-03-14T03:12:38;2.50;;;0.43;;
769;SDS011;368;48.698;9.116;2023-03-14T03:15:05;1.50;;;0.67;;
769;SDS011;368;48.698;9.116;2023-03-14T03:17:33;8.13;;;1.00;;
769;SDS011;368;48.698;9.116;2023-03-14T03:20:01;0.70;;;0.40;;
769;SDS011;368;48.698;9.116;2023-03-14T03:22:29;2.23;;;0.70;;
769;SDS011;368;48.698;9.116;2023-03-14T03:24:56;1.63;;;0.60;;
769;SDS011;368;48.698;9.116;2023-03-14T03:27:23;2.13;;;0.67;;
769;SDS011;368;48.698;9.116;2023-03-14T03:29:50;1.07;;;0.90;;
769;SDS011;368;48.698;9.116;2023-03-14T03:32:16;1.10;;;0.67;;
769;SDS011;368;48.698;9.116;2023-03-14T03:34:43;0.80;;;0.67;;
769;SDS011;368;48.698;9.116;2023-03-14T03:37:12;1.33;;;0.60;;
769;SDS011;368;48.698;9.116;2023-03-14T03:39:39;4.90;;;1.20;;
769;SDS011;368;48.698;9.116;2023-03-14T03:42:05;2.33;;;0.70;;
769;SDS011;368;48.698;9.116;2023-03-14T03:44:32;2.77;;;1.47;;
769;SDS011;368;48.698;9.116;2023-03-14T03:46:59;1.03;;;0.70;;
769;SDS011;368;48.698;9.116;2023-03-14T03:49:28;2.83;;;1.53;;
769;SDS011;368;48.698;9.116;2023-03-14T03:51:55;3.37;;;1.00;;
769;SDS011;368;48.698;9.116;2023-03-14T03:54:23;1.23;;;0.70;;
769;SDS011;368;48.698;9.116;2023-03-14T03:56:50;5.00;;;1.00;;
769;SDS011;368;48.698;9.116;2023-03-14T03:59:17;2.67;;;0.90;;
769;SDS011;368;48.698;9.116;2023-03-14T04:01:44;2.90;;;1.07;;
769;SDS011;368;48.698;9.116;2023-03-14T04:04:11;3.67;;;0.93;;
769;SDS011;368;48.698;9.116;2023-03-14T04:06:38;1.50;;;1.23;;
769;SDS011;368;48.698;9.116;2023-03-14T04:09:06;1.50;;;0.90;;
769;SDS011;368;48.698;9.116;2023-03-14T04:11:35;1.60;;;0.80;;
769;SDS011;368;48.698;9.116;2023-03-14T04:14:01;3.13;;;1.07;;
769;SDS011;368;48.698;9.116;2023-03-14T04:16:28;2.83;;;1.50;;
769;SDS011;368;48.698;9.116;2023-03-14T04:18:56;2.30;;;0.83;;
769;SDS011;368;48.698;9.116;2023-03-14T04:21:23;1.40;;;0.63;;
769;SDS011;368;48.698;9.116;2023-03-14T04:23:50;2.20;;;1.00;;
769;SDS011;368;48.698;9.116;2023-03-14T04:26:17;1.47;;;0.80;;
769;SDS011;368;48.698;9.116;2023-03-14T04:28:45;4.80;;;1.00;;
769;SDS011;368;48.698;9.116;2023-03-14T04:31:14;3.97;;;1.30;;
769;SDS011;368;48.698;9.116;2023-03-14T04:33:42;3.27;;;1.50;;
769;SDS011;368;48.698;9.116;2023-03-14T04:36:09;3.53;;;1.13;;
769;SDS011;368;48.698;9.116;2023-03-14T04:38:36;4.77;;;1.00;;
769;SDS011;368;48.698;9.116;2023-03-14T04:41:03;2.77;;;1.13;;
769;SDS011;368;48.698;9.116;2023-03-14T04:43:30;2.47;;;1.20;;
769;SDS011;368;48.698;9.116;2023-03-14T04:45:58;3.87;;;0.93;;
769;SDS011;368;48.698;9.116;2023-03-14T04:48:25;5.30;;;1.63;;
769;SDS011;368;48.698;9.116;2023-03-14T04:50:53;3.40;;;1.60;;
769;SDS011;368;48.698;9.116;2023-03-14T04:53:20;2.57;;;0.90;;
769;SDS011;368;48.698;9.116;2023-03-14T04:55:47;2.27;;;1.23;;
769;SDS011;368;48.698;9.116;2023-03-14T04:58:15;1.73;;;1.20;;
769;SDS011;368;48.698;9.116;2023-03-14T05:00:41;4.00;;;1.93;;
769;SDS011;368;48.698;9.116;2023-03-14T05:03:10;1.40;;;0.80;;
769;SDS011;368;48.698;9.116;2023-03-14T05:05:36;7.30;;;1.30;;
769;SDS011;368;48.698;9.116;2023-03-14T05:08:04;3.33;;;1.20;;
769;SDS011;368;48.698;9.116;2023-03-14T05:10:31;2.20;;;1.00;;
769;SDS011;368;48.698;9.116;2023-03-14T05:12:58;2.03;;;0.87;;
769;SDS011;368;48.698;9.116;2023-03-14T05:15:25;3.93;;;1.10;;
769;SDS011;368;48.698;9.116;2023-03-14T05:17:51;1.53;;;0.80;;
769;SDS011;368;48.698;9.116;2023-03-14T05:20:20;1.47;;;0.80;;
769;SDS011;368;48.698;9.116;2023-03-14T05:22:49;4.67;;;0.83;;
769;SDS011;368;48.698;9.116;2023-03-14T05:25:16;1.53;;;1.20;;
769;SDS011;368;48.698;9.116;2023-03-14T05:27:43;3.10;;;0.87;;
769;SDS011;368;48.698;9.116;2023-03-14T05:30:10;3.97;;;1.00;;
769;SDS011;368;48.698;9.116;2023-03-14T05:32:37;2.23;;;1.10;;
769;SDS011;368;48.698;9.116;2023-03-14T05:35:04;1.50;;;0.70;;
769;SDS011;368;48.698;9.116;2023-03-14T05:37:33;7.03;;;1.17;;
769;SDS011;368;48.698;9.116;2023-03-14T05:40:00;2.60;;;0.67;;
769;SDS011;368;48.698;9.116;2023-03-14T05:42:28;1.93;;;1.10;;
769;SDS011;368;48.698;9.116;2023-03-14T05:44:54;2.50;;;0.77;;
769;SDS011;368;48.698;9.116;2023-03-14T05:47:22;1.50;;;0.73;;
769;SDS011;368;48.698;9.116;2023-03-14T05:49:49;2.60;;;0.83;;
769;SDS011;368;48.698;9.116;2023-03-14T05:52:16;1.57;;;0.90;;
769;SDS011;368;48.698;9.116;2023-03-14T05:54:46;1.67;;;0.70;;
769;SDS011;368;48.698;9.116;2023-03-14T05:57:13;2.13;;;1.17;;
769;SDS011;368;48.698;9.116;2023-03-14T05:59:39;5.13;;;0.90;;
769;SDS011;368;48.698;9.116;2023-03-14T06:02:06;2.80;;;1.10;;
769;SDS011;368;48.698;9.116;2023-03-14T06:04:33;7.10;;;1.27;;
769;SDS011;368;48.698;9.116;2023-03-14T06:07:00;1.80;;;0.80;;
769;SDS011;368;48.698;9.116;2023-03-14T06:09:27;3.67;;;1.00;;
769;SDS011;368;48.698;9.116;2023-03-14T06:11:56;2.33;;;0.90;;
769;SDS011;368;48.698;9.116;2023-03-14T06:14:24;2.93;;;0.90;;
769;SDS011;368;48.698;9.116;2023-03-14T06:16:51;4.03;;;1.03;;
769;SDS011;368;48.698;9.116;2023-03-14T06:19:18;5.93;;;1.20;;
769;SDS011;368;48.698;9.116;2023-03-14T06:21:45;3.37;;;1.00;;
769;SDS011;368;48.698;9.116;2023-03-14T06:24:12;6.10;;;1.00;;
769;SDS011;368;48.698;9.116;2023-03-14T06:26:42;2.47;;;1.23;;
769;SDS011;368;48.698;9.116;2023-03-14T06:29:10;0.60;;;0.60;;
769;SDS011;368;48.698;9.116;2023-03-14T06:31:38;2.30;;;0.80;;
769;SDS011;368;48.698;9.116;2023-03-14T06:34:05;2.50;;;0.87;;
769;SDS011;368;48.698;9.116;2023-03-14T06:36:32;2.20;;;0.80;;
769;SDS011;368;48.698;9.116;2023-03-14T06:38:59;1.90;;;0.63;;
769;SDS011;368;48.698;9.116;2023-03-14T06:41:25;1.10;;;0.63;;
769;SDS011;368;48.698;9.116;2023-03-14T06:43:52;1.53;;;0.70;;
769;SDS011;368;48.698;9.116;2023-03-14T06:46:21;1.37;;;0.80;;
769;SDS011;368;48.698;9.116;2023-03-14T06:48:47;2.30;;;0.67;;
769;SDS011;368;48.698;9.116;2023-03-14T06:51:15;0.87;;;0.50;;
769;SDS011;368;48.698;9.116;2023-03-14T06:53:42;0.87;;;0.40;;
769;SDS011;368;48.698;9.116;2023-03-14T06:56:09;2.70;;;0.80;;
769;SDS011;368;48.698;9.116;2023-03-14T06:58:36;0.80;;;0.70;;
769;SDS011;368;48.698;9.116;2023-03-14T07:01:03;1.07;;;0.50;;
769;SDS011;368;48.698;9.116;2023-03-14T07:03:31;2.30;;;0.60;;
769;SDS011;368;48.698;9.116;2023-03-14T07:05:59;1.17;;;0.50;;
769;SDS011;368;48.698;9.116;2023-03-14T07:08:26;1.63;;;0.60;;
769;SDS011;368;48.698;9.116;2023-03-14T07:10:52;1.40;;;0.50;;
769;SDS011;368;48.698;9.116;2023-03-14T07:13:22;1.40;;;0.60;;
769;SDS011;368;48.698;9.116;2023-03-14T07:15:49;0.83;;;0.47;;
769;SDS011;368;48.698;9.116;2023-03-14T07:18:16;1.10;;;0.40;;
769;SDS011;368;48.698;9.116;2023-03-14T07:20:45;0.63;;;0.40;;
769;SDS011;368;48.698;9.116;2023-03-14T07:23:14;2.77;;;1.17;;
769;SDS011;368;48.698;9.116;2023-03-14T07:25:41;0.83;;;0.50;;
769;SDS011;368;48.698;9.116;2023-03-14T07:28:08;0.47;;;0.30;;
769;SDS011;368;48.698;9.116;2023-03-14T07:30:34;0.90;;;0.50;;
769;SDS011;368;48.698;9.116;2023-03-14T07:33:01;1.10;;;0.60;;
769;SDS011;368;48.698;9.116;2023-03-14T07:35:28;0.97;;;0.60;;
769;SDS011;368;48.698;9.116;2023-03-14T07:37:58;1.00;;;0.50;;
769;SDS011;368;48.698;9.116;2023-03-14T07:40:25;2.00;;;0.90;;
769;SDS011;368;48.698;9.116;2023-03-14T07:42:52;0.70;;;0.40;;
769;SDS011;368;48.698;9.116;2023-03-14T07:45:20;1.03;;;0.47;;
769;SDS011;368;48.698;9.116;2023-03-14T07:47:47;0.90;;;0.43;;
769;SDS011;368;48.698;9.116;2023-03-14T07:51:26;0.70;;;0.50;;
769;SDS011;368;48.698;9.116;2023-03-14T07:53:49;0.70;;;0.43;;
769;SDS011;368;48.698;9.116;2023-03-14T07:56:16;1.43;;;0.57;;
769;SDS011;368;48.698;9.116;2023-03-14T07:58:44;1.53;;;0.50;;
769;SDS011;368;48.698;9.116;2023-03-14T08:01:10;1.80;;;0.50;;
769;SDS011;368;48.698;9.116;2023-03-14T08:03:37;0.50;;;0.30;;
769;SDS011;368;48.698;9.116;2023-03-14T08:06:04;1.37;;;0.57;;
769;SDS011;368;48.698;9.116;2023-03-14T08:08:32;1.03;;;0.50;;
769;SDS011;368;48.698;9.116;2023-03-14T08:11:03;2.57;;;0.50;;
769;SDS011;368;48.698;9.116;2023-03-14T08:13:31;3.30;;;0.70;;
769;SDS011;368;48.698;9.116;2023-03-14T08:15:58;1.13;;;0.60;;
769;SDS011;368;48.698;9.116;2023-03-14T08:18:24;1.80;;;0.50;;
769;SDS011;368;48.698;9.116;2023-03-14T08:20:51;1.00;;;0.50;;
769;SDS011;368;48.698;9.116;2023-03-14T08:23:18;1.13;;;0.40;;
769;SDS011;368;48.698;9.116;2023-03-14T08:25:45;1.20;;;0.50;;
769;SDS011;368;48.698;9.116;2023-03-14T08:28:18;1.10;;;0.37;;
769;SDS011;368;48.698;9.116;2023-03-14T08:30:45;0.60;;;0.37;;
769;SDS011;368;48.698;9.116;2023-03-14T08:33:12;0.80;;;0.40;;
769;SDS011;368;48.698;9.116;2023-03-14T08:35:39;1.43;;;0.40;;
769;SDS011;368;48.698;9.116;2023-03-14T08:38:05;2.00;;;0.40;;
769;SDS011;368;48.698;9.116;2023-03-14T08:40:32;1.80;;;0.50;;
769;SDS011;368;48.698;9.116;2023-03-14T08:42:59;1.63;;;0.60;;
769;SDS011;368;48.698;9.116;2023-03-14T08:45:27;1.53;;;0.50;;
769;SDS011;368;48.698;9.116;2023-03-14T08:47:54;0.70;;;0.40;;
769;SDS011;368;48.698;9.116;2023-03-14T08:50:21;0.50;;;0.40;;
769;SDS011;368;48.698;9.116;2023-03-14T08:52:49;0.67;;;0.50;;
769;SDS011;368;48.698;9.116;2023-03-14T08:55:16;0.80;;;0.40;;
769;SDS011;368;48.698;9.116;2023-03-14T08:57:42;0.90;;;0.50;;
769;SDS011;368;48.698;9.116;2023-03-14T09:00:10;2.10;;;0.40;;
769;SDS011;368;48.698;9.116;2023-03-14T09:02:41;1.73;;;0.73;;
769;SDS011;368;48.698;9.116;2023-03-14T09:05:09;1.47;;;0.40;;
769;SDS011;368;48.698;9.116;2023-03-14T09:07:36;0.90;;;0.60;;
769;SDS011;368;48.698;9.116;2023-03-14T09:10:04;1.27;;;0.93;;
769;SDS011;368;48.698;9.116;2023-03-14T09:12:32;0.50;;;0.30;;
769;SDS011;368;48.698;9.116;2023-03-14T09:14:59;0.40;;;0.30;;
769;SDS011;368;48.698;9.116;2023-03-14T09:17:26;2.40;;;0.60;;
769;SDS011;368;48.698;9.116;2023-03-14T09:19:54;0.40;;;0.40;;
769;SDS011;368;48.698;9.116;2023-03-14T09:22:21;1.43;;;0.40;;
769;SDS011;368;48.698;9.116;2023-03-14T09:24:48;1.07;;;0.37;;
769;SDS011;368;48.698;9.116;2023-03-14T09:27:16;1.63;;;0.47;;
769;SDS011;368;48.698;9.116;2023-03-14T09:29:43;2.10;;;0.40;;
769;SDS011;368;48.698;9.116;2023-03-14T09:32:10;0.80;;;0.30;;
769;SDS011;368;48.698;9.116;2023-03-14T09:34:37;1.37;;;0.30;;
769;SDS011;368;48.698;9.116;2023-03-14T09:37:05;1.17;;;0.50;;
769;SDS011;368;48.698;9.116;2023-03-14T09:39:32;2.40;;;0.63;;
769;SDS011;368;48.698;9.116;2023-03-14T09:41:59;1.33;;;0.53;;
769;SDS011;368;48.698;9.116;2023-03-14T09:44:31;2.20;;;0.30;;
769;SDS011;368;48.698;9.116;2023-03-14T09:47:03;0.60;;;0.50;;
769;SDS011;368;48.698;9.116;2023-03-14T09:49:33;0.50;;;0.30;;
769;SDS011;368;48.698;9.116;2023-03-14T09:52:02;0.70;;;0.37;;
769;SDS011;368;48.698;9.116;2023-03-14T09:54:39;1.70;;;0.50;;
769;SDS011;368;48.698;9.116;2023-03-14T09:57:11;1.37;;;0.30;;
769;SDS011;368;48.698;9.116;2023-03-14T09:59:40;1.10;;;0.37;;
769;SDS011;368;48.698;9.116;2023-03-14T10:02:14;0.70;;;0.27;;
769;SDS011;368;48.698;9.116;2023-03-14T10:04:44;0.70;;;0.23;;
769;SDS011;368;48.698;9.116;2023-03-14T10:07:14;1.80;;;0.50;;
769;SDS011;368;48.698;9.116;2023-03-14T10:09:44;0.40;;;0.23;;
769;SDS011;368;48.698;9.116;2023-03-14T10:12:13;2.30;;;0.70;;
769;SDS011;368;48.698;9.116;2023-03-14T10:14:45;1.10;;;0.30;;
769;SDS011;368;48.698;9.116;2023-03-14T10:17:14;0.70;;;0.30;;
769;SDS011;368;48.698;9.116;2023-03-14T10:19:53;0.60;;;0.20;;
769;SDS011;368;48.698;9.116;2023-03-14T10:22:26;0.67;;;0.20;;
769;SDS011;368;48.698;9.116;2023-03-14T10:24:56;0.53;;;0.30;;
769;SDS011;368;48.698;9.116;2023-03-14T10:27:27;0.67;;;0.20;;
769;SDS011;368;48.698;9.116;2023-03-14T10:29:56;1.13;;;0.37;;
769;SDS011;368;48.698;9.116;2023-03-14T10:32:28;1.43;;;0.37;;
769;SDS011;368;48.698;9.116;2023-03-14T10:35:17;0.60;;;0.40;;
769;SDS011;368;48.698;9.116;2023-03-14T10:37:55;0.40;;;0.30;;
769;SDS011;368;48.698;9.116;2023-03-14T10:40:26;0.80;;;0.40;;
769;SDS011;368;48.698;9.116;2023-03-14T10:42:54;0.50;;;0.33;;
769;SDS011;368;48.698;9.116;2023-03-14T10:45:31;1.23;;;0.30;;
769;SDS011;368;48.698;9.116;2023-03-14T10:48:06;1.27;;;0.40;;
769;SDS011;368;48.698;9.116;2023-03-14T10:50:55;1.00;;;0.50;;
769;SDS011;368;48.698;9.116;2023-03-14T10:53:25;1.67;;;0.57;;
769;SDS011;368;48.698;9.116;2023-03-14T10:55:52;1.13;;;0.40;;
769;SDS011;368;48.698;9.116;2023-03-14T10:58:22;1.67;;;0.40;;
769;SDS011;368;48.698;9.116;2023-03-14T11:00:54;0.63;;;0.40;;
769;SDS011;368;48.698;9.116;2023-03-14T11:03:28;0.70;;;0.50;;
769;SDS011;368;48.698;9.116;2023-03-14T11:05:59;0.90;;;0.40;;
769;SDS011;368;48.698;9.116;2023-03-14T11:08:35;2.27;;;0.67;;
769;SDS011;368;48.698;9.116;2023-03-14T11:11:10;0.70;;;0.30;;
769;SDS011;368;48.698;9.116;2023-03-14T11:13:43;0.40;;;0.30;;
769;SDS011;368;48.698;9.116;2023-03-14T11:16:21;0.50;;;0.40;;
769;SDS011;368;48.698;9.116;2023-03-14T11:19:11;0.70;;;0.40;;
769;SDS011;368;48.698;9.116;2023-03-14T11:21:51;1.13;;;0.47;;
769;SDS011;368;48.698;9.116;2023-03-14T11:24:31;0.70;;;0.60;;
769;SDS011;368;48.698;9.116;2023-03-14T11:27:06;1.00;;;0.40;;
769;SDS011;368;48.698;9.116;2023-03-14T11:29:41;0.80;;;0.37;;
769;SDS011;368;48.698;9.116;2023-03-14T11:32:24;0.80;;;0.40;;
769;SDS011;368;48.698;9.116;2023-03-14T11:35:00;1.20;;;1.10;;
769;SDS011;368;48.698;9.116;2023-03-14T11:37:35;3.97;;;2.90;;
769;SDS011;368;48.698;9.116;2023-03-14T11:40:08;4.23;;;3.83;;
769;SDS011;368;48.698;9.116;2023-03-14T11:42:40;1.57;;;0.70;;
769;SDS011;368;48.698;9.116;2023-03-14T11:45:12;1.13;;;0.40;;
769;SDS011;368;48.698;9.116;2023-03-14T11:47:44;0.40;;;0.30;;
769;SDS011;368;48.698;9.116;2023-03-14T11:50:18;3.13;;;0.40;;
769;SDS011;368;48.698;9.116;2023-03-14T11:52:50;1.43;;;0.30;;
769;SDS011;368;48.698;9.116;2023-03-14T11:55:22;0.50;;;0.30;;
769;SDS011;368;48.698;9.116;2023-03-14T11:57:56;0.50;;;0.30;;
769;SDS011;368;48.698;9.116;2023-03-14T12:00:27;0.67;;;0.40;;
769;SDS011;368;48.698;9.116;2023-03-14T12:02:56;0.83;;;0.40;;
769;SDS011;368;48.698;9.116;2023-03-14T12:08:38;0.40;;;0.40;;
769;SDS011;368;48.698;9.116;2023-03-14T12:11:11;0.53;;;0.30;;
769;SDS011;368;48.698;9.116;2023-03-14T12:13:45;0.40;;;0.20;;
769;SDS011;368;48.698;9.116;2023-03-14T12:16:20;0.70;;;0.30;;
769;SDS011;368;48.698;9.116;2023-03-14T12:21:57;0.30;;;0.20;;
769;SDS011;368;48.698;9.116;2023-03-14T12:24:28;0.57;;;0.30;;
769;SDS011;368;48.698;9.116;2023-03-14T12:27:05;0.70;;;0.30;;
769;SDS011;368;48.698;9.116;2023-03-14T12:29:34;1.43;;;0.40;;
769;SDS011;368;48.698;9.116;2023-03-14T12:32:25;0.80;;;0.37;;
769;SDS011;368;48.698;9.116;2023-03-14T12:34:51;0.40;;;0.30;;
769;SDS011;368;48.698;9.116;2023-03-14T12:37:26;1.37;;;0.30;;
769;SDS011;368;48.698;9.116;2023-03-14T12:40:03;2.00;;;0.40;;
769;SDS011;368;48.698;9.116;2023-03-14T12:42:54;1.57;;;0.50;;
769;SDS011;368;48.698;9.116;2023-03-14T12:45:25;0.70;;;0.37;;
769;SDS011;368;48.698;9.116;2023-03-14T12:48:02;1.23;;;0.50;;
769;SDS011;368;48.698;9.116;2023-03-14T12:50:34;0.50;;;0.40;;
769;SDS011;368;48.698;9.116;2023-03-14T12:56:22;0.70;;;0.40;;
769;SDS011;368;48.698;9.116;2023-03-14T13:01:53;1.13;;;0.50;;
769;SDS011;368;48.698;9.116;2023-03-14T13:04:26;2.50;;;0.60;;
769;SDS011;368;48.698;9.116;2023-03-14T13:06:55;0.70;;;0.50;;
769;SDS011;368;48.698;9.116;2023-03-14T13:12:47;1.03;;;0.73;;
769;SDS011;368;48.698;9.116;2023-03-14T13:15:21;0.77;;;0.50;;
769;SDS011;368;48.698;9.116;2023-03-14T13:17:50;2.63;;;0.70;;
769;SDS011;368;48.698;9.116;2023-03-14T13:20:23;0.87;;;0.50;;
769;SDS011;368;48.698;9.116;2023-03-14T13:22:54;0.70;;;0.50;;
769;SDS011;368;48.698;9.116;2023-03-14T13:25:21;1.33;;;0.47;;
769;SDS011;368;48.698;9.116;2023-03-14T13:27:48;1.00;;;0.60;;
769;SDS011;368;48.698;9.116;2023-03-14T13:30:21;0.60;;;0.50;;
769;SDS011;368;48.698;9.116;2023-03-14T13:32:52;4.87;;;0.70;;
769;SDS011;368;48.698;9.116;2023-03-14T13:35:22;2.30;;;0.60;;
769;SDS011;368;48.698;9.116;2023-03-14T13:37:57;0.93;;;0.60;;
769;SDS011;368;48.698;9.116;2023-03-14T13:40:28;2.57;;;0.70;;
769;SDS011;368;48.698;9.116;2023-03-14T13:43:01;0.70;;;0.70;;
769;SDS011;368;48.698;9.116;2023-03-14T13:45:31;2.23;;;0.67;;
769;SDS011;368;48.698;9.116;2023-03-14T13:48:12;1.40;;;1.10;;
769;SDS011;368;48.698;9.116;2023-03-14T13:50:44;1.13;;;0.67;;
769;SDS011;368;48.698;9.116;2023-03-14T13:53:12;1.97;;;0.90;;
769;SDS011;368;48.698;9.116;2023-03-14T13:55:39;0.70;;;0.50;;
769;SDS011;368;48.698;9.116;2023-03-14T13:58:11;1.90;;;0.70;;
769;SDS011;368;48.698;9.116;2023-03-14T14:00:54;0.90;;;0.60;;
769;SDS011;368;48.698;9.116;2023-03-14T14:03:25;4.10;;;0.80;;
769;SDS011;368;48.698;9.116;2023-03-14T14:05:54;3.80;;;1.50;;
769;SDS011;368;48.698;9.116;2023-03-14T14:08:22;2.07;;;0.70;;
769;SDS011;368;48.698;9.116;2023-03-14T14:10:49;0.60;;;0.50;;
769;SDS011;368;48.698;9.116;2023-03-14T14:13:20;1.87;;;0.80;;
769;SDS011;368;48.698;9.116;2023-03-14T14:15:48;0.80;;;0.60;;
769;SDS011;368;48.698;9.116;2023-03-14T14:18:19;1.93;;;0.80;;
769;SDS011;368;48.698;9.116;2023-03-14T14:20:50;2.40;;;0.60;;
769;SDS011;368;48.698;9.116;2023-03-14T14:23:17;0.97;;;0.50;;
769;SDS011;368;48.698;9.116;2023-03-14T14:25:50;1.40;;;0.80;;
769;SDS011;368;48.698;9.116;2023-03-14T14:28:20;0.83;;;0.60;;
769;SDS011;368;48.698;9.116;2023-03-14T14:31:02;1.80;;;0.63;;
769;SDS011;368;48.698;9.116;2023-03-14T14:33:52;2.60;;;0.80;;
769;SDS011;368;48.698;9.116;2023-03-14T14:36:20;1.73;;;0.70;;
769;SDS011;368;48.698;9.116;2023-03-14T14:38:52;4.33;;;0.90;;
769;SDS011;368;48.698;9.116;2023-03-14T14:41:26;1.93;;;1.10;;
769;SDS011;368;48.698;9.116;2023-03-14T14:43:55;1.50;;;0.97;;
769;SDS011;368;48.698;9.116;2023-03-14T14:46:25;1.17;;;0.80;;
769;SDS011;368;48.698;9.116;2023-03-14T14:48:56;1.13;;;1.03;;
769;SDS011;368;48.698;9.116;2023-03-14T14:51:30;2.37;;;0.53;;
769;SDS011;368;48.698;9.116;2023-03-14T14:54:02;0.93;;;0.50;;
769;SDS011;368;48.698;9.116;2023-03-14T14:56:36;1.47;;;0.50;;
769;SDS011;368;48.698;9.116;2023-03-14T14:59:04;2.40;;;1.07;;
769;SDS011;368;48.698;9.116;2023-03-14T15:01:33;2.97;;;1.03;;
769;SDS011;368;48.698;9.116;2023-03-14T15:04:09;1.73;;;0.70;;
769;SDS011;368;48.698;9.116;2023-03-14T15:06:38;1.10;;;0.70;;
769;SDS011;368;48.698;9.116;2023-03-14T15:09:08;3.93;;;1.33;;
769;SDS011;368;48.698;9.116;2023-03-14T15:11:37;2.83;;;0.90;;
769;SDS011;368;48.698;9.116;2023-03-14T15:14:04;1.30;;;0.70;;
769;SDS011;368;48.698;9.116;2023-03-14T15:16:32;3.20;;;1.00;;
769;SDS011;368;48.698;9.116;2023-03-14T15:19:00;2.00;;;1.00;;
769;SDS011;368;48.698;9.116;2023-03-14T15:21:31;4.90;;;1.10;;
769;SDS011;368;48.698;9.116;2023-03-14T15:24:00;1.60;;;1.20;;
769;SDS011;368;48.698;9.116;2023-03-14T15:26:28;1.40;;;1.07;;
769;SDS011;368;48.698;9.116;2023-03-14T15:28:55;5.37;;;1.60;;
769;SDS011;368;48.698;9.116;2023-03-14T15:31:22;2.80;;;1.10;;
769;SDS011;368;48.698;9.116;2023-03-14T15:33:49;3.90;;;1.63;;
769;SDS011;368;48.698;9.116;2023-03-14T15:36:19;3.03;;;1.30;;
769;SDS011;368;48.698;9.116;2023-03-14T15:38:50;3.63;;;1.53;;
769;SDS011;368;48.698;9.116;2023-03-14T15:41:18;2.10;;;1.10;;
769;SDS011;368;48.698;9.116;2023-03-14T15:43:47;1.70;;;0.93;;
769;SDS011;368;48.698;9.116;2023-03-14T15:46:14;2.80;;;1.47;;
769;SDS011;368;48.698;9.116;2023-03-14T15:48:42;3.17;;;1.40;;
769;SDS011;368;48.698;9.116;2023-03-14T15:51:09;4.63;;;1.33;;
769;SDS011;368;48.698;9.116;2023-03-14T15:53:36;2.67;;;1.03;;
769;SDS011;368;48.698;9.116;2023-03-14T15:56:04;3.57;;;1.40;;
769;SDS011;368;48.698;9.116;2023-03-14T15:58:32;4.67;;;1.73;;
769;SDS011;368;48.698;9.116;2023-03-14T16:00:59;4.30;;;0.83;;
769;SDS011;368;48.698;9.116;2023-03-14T16:03:27;1.97;;;1.60;;
769;SDS011;368;48.698;9.116;2023-03-14T16:05:54;3.17;;;1.47;;
769;SDS011;368;48.698;9.116;2023-03-14T16:08:22;3.93;;;3.10;;
769;SDS011;368;48.698;9.116;2023-03-14T16:10:50;4.10;;;1.30;;
769;SDS011;368;48.698;9.116;2023-03-14T16:13:18;1.97;;;1.10;;
769;SDS011;368;48.698;9.116;2023-03-14T16:15:56;1.83;;;1.07;;
769;SDS011;368;48.698;9.116;2023-03-14T16:18:24;2.00;;;1.30;;
769;SDS011;368;48.698;9.116;2023-03-14T16:20:53;2.13;;;1.17;;